createdAt,value
2017-04-23T00:00:36.502Z,1012.46
2017-04-23T00:01:16.984Z,1012.45
2017-04-23T00:01:57.490Z,1012.46
2017-04-23T00:02:37.975Z,1012.42
2017-04-23T00:03:18.467Z,1012.44
2017-04-23T00:03:58.958Z,1012.42
2017-04-23T00:04:39.450Z,1012.4
2017-04-23T00:05:19.947Z,1012.4
2017-04-23T00:06:00.437Z,1012.39
2017-04-23T00:06:40.926Z,1012.37
2017-04-23T00:07:21.421Z,1012.39
2017-04-23T00:08:01.915Z,1012.41
2017-04-23T00:08:42.403Z,1012.4
2017-04-23T00:09:22.898Z,1012.42
2017-04-23T00:10:03.396Z,1012.4
2017-04-23T00:10:43.881Z,1012.37
2017-04-23T00:11:24.356Z,1012.36
2017-04-23T00:12:04.845Z,1012.36
2017-04-23T00:12:45.330Z,1012.34
2017-04-23T00:13:25.813Z,1012.33
2017-04-23T00:14:06.312Z,1012.33
2017-04-23T00:14:46.807Z,1012.31
2017-04-23T00:15:27.287Z,1012.33
2017-04-23T00:16:07.726Z,1012.32
2017-04-23T00:16:48.199Z,1012.3
2017-04-23T00:17:28.692Z,1012.27
2017-04-23T00:18:09.198Z,1012.32
2017-04-23T00:18:49.685Z,1012.3
2017-04-23T00:19:30.181Z,1012.32
2017-04-23T00:20:10.711Z,1012.35
2017-04-23T00:20:51.171Z,1012.29
2017-04-23T00:21:31.641Z,1012.32
2017-04-23T00:22:12.123Z,1012.28
2017-04-23T00:22:52.611Z,1012.3
2017-04-23T00:23:33.123Z,1012.26
2017-04-23T00:24:13.605Z,1012.27
2017-04-23T00:24:54.092Z,1012.25
2017-04-23T00:25:34.590Z,1012.21
2017-04-23T00:26:15.077Z,1012.26
2017-04-23T00:26:55.566Z,1012.24
2017-04-23T00:27:36.062Z,1012.28
2017-04-23T00:28:16.547Z,1012.28
2017-04-23T00:28:57.041Z,1012.28
2017-04-23T00:29:37.534Z,1012.24
2017-04-23T00:30:18.028Z,1012.26
2017-04-23T00:30:58.519Z,1012.28
2017-04-23T00:31:39.012Z,1012.28
2017-04-23T00:32:19.506Z,1012.29
2017-04-23T00:33:00.000Z,1012.3
2017-04-23T00:33:40.489Z,1012.26
2017-04-23T00:34:20.984Z,1012.25
2017-04-23T00:35:01.474Z,1012.26
2017-04-23T00:35:41.956Z,1012.3
2017-04-23T00:36:22.445Z,1012.28
2017-04-23T00:37:02.951Z,1012.24
2017-04-23T00:37:43.442Z,1012.25
2017-04-23T00:38:23.930Z,1012.26
2017-04-23T00:39:04.427Z,1012.25
2017-04-23T00:39:44.916Z,1012.26
2017-04-23T00:40:25.416Z,1012.26
2017-04-23T00:41:05.907Z,1012.26
2017-04-23T00:41:46.390Z,1012.25
2017-04-23T00:42:26.892Z,1012.21
2017-04-23T00:43:07.381Z,1012.23
2017-04-23T00:43:47.867Z,1012.23
2017-04-23T00:44:28.356Z,1012.24
2017-04-23T00:45:08.860Z,1012.23
2017-04-23T00:45:49.336Z,1012.22
2017-04-23T00:46:29.817Z,1012.2
2017-04-23T00:47:10.309Z,1012.21
2017-04-23T00:47:50.795Z,1012.25
2017-04-23T00:48:31.280Z,1012.21
2017-04-23T00:49:11.778Z,1012.23
2017-04-23T00:49:52.271Z,1012.25
2017-04-23T00:50:32.771Z,1012.21
2017-04-23T00:51:13.253Z,1012.22
2017-04-23T00:51:53.748Z,1012.23
2017-04-23T00:52:34.238Z,1012.25
2017-04-23T00:53:14.732Z,1012.25
2017-04-23T00:53:55.228Z,1012.26
2017-04-23T00:54:35.720Z,1012.25
2017-04-23T00:55:16.209Z,1012.25
2017-04-23T00:55:56.704Z,1012.21
2017-04-23T00:56:37.193Z,1012.26
2017-04-23T00:57:17.694Z,1012.25
2017-04-23T00:57:58.186Z,1012.28
2017-04-23T00:58:38.675Z,1012.26
2017-04-23T00:59:19.171Z,1012.2
2017-04-23T00:59:59.665Z,1012.24
2017-04-23T01:00:40.136Z,1012.21
2017-04-23T01:01:20.616Z,1012.2
2017-04-23T01:02:01.105Z,1012.24
2017-04-23T01:02:41.597Z,1012.24
2017-04-23T01:03:22.075Z,1012.21
2017-04-23T01:04:02.552Z,1012.24
2017-04-23T01:04:43.018Z,1012.24
2017-04-23T01:05:23.482Z,1012.21
2017-04-23T01:06:03.934Z,1012.18
2017-04-23T01:06:44.427Z,1012.16
2017-04-23T01:07:24.923Z,1012.17
2017-04-23T01:08:05.393Z,1012.17
2017-04-23T01:08:45.870Z,1012.21
2017-04-23T01:09:26.380Z,1012.19
2017-04-23T01:10:06.869Z,1012.16
2017-04-23T01:10:47.356Z,1012.18
2017-04-23T01:11:27.856Z,1012.2
2017-04-23T01:12:08.336Z,1012.19
2017-04-23T01:12:48.821Z,1012.17
2017-04-23T01:13:29.269Z,1012.18
2017-04-23T01:14:09.771Z,1012.15
2017-04-23T01:14:50.259Z,1012.11
2017-04-23T01:16:47.854Z,1012.18
2017-04-23T01:17:28.337Z,1012.11
2017-04-23T01:18:08.835Z,1012.08
2017-04-23T01:18:49.318Z,1012.12
2017-04-23T01:19:29.803Z,1012.12
2017-04-23T01:20:10.283Z,1012.14
2017-04-23T01:20:50.766Z,1012.13
2017-04-23T01:21:31.251Z,1012.13
2017-04-23T01:23:44.045Z,1012.13
2017-04-23T01:24:24.461Z,1012.15
2017-04-23T01:25:04.940Z,1012.12
2017-04-23T01:25:45.444Z,1012.14
2017-04-23T01:26:25.936Z,1012.17
2017-04-23T01:27:06.418Z,1012.13
2017-04-23T01:27:46.926Z,1012.17
2017-04-23T01:28:27.414Z,1012.14
2017-04-23T01:29:07.896Z,1012.13
2017-04-23T01:29:48.380Z,1012.15
2017-04-23T01:30:28.881Z,1012.16
2017-04-23T01:31:09.357Z,1012.17
2017-04-23T01:31:49.844Z,1012.17
2017-04-23T01:32:30.326Z,1012.18
2017-04-23T01:33:10.824Z,1012.17
2017-04-23T01:33:51.303Z,1012.18
2017-04-23T01:34:31.777Z,1012.19
2017-04-23T01:35:12.260Z,1012.19
2017-04-23T01:35:52.777Z,1012.2
2017-04-23T01:36:33.236Z,1012.19
2017-04-23T01:37:13.735Z,1012.2
2017-04-23T01:37:54.222Z,1012.2
2017-04-23T01:38:34.708Z,1012.21
2017-04-23T01:39:15.181Z,1012.19
2017-04-23T01:39:55.668Z,1012.23
2017-04-23T01:40:36.168Z,1012.23
2017-04-23T01:41:16.645Z,1012.21
2017-04-23T01:41:57.108Z,1012.26
2017-04-23T01:42:37.591Z,1012.23
2017-04-23T01:43:18.104Z,1012.25
2017-04-23T01:43:58.589Z,1012.27
2017-04-23T01:44:39.087Z,1012.26
2017-04-23T01:45:19.585Z,1012.25
2017-04-23T01:46:00.061Z,1012.26
2017-04-23T01:46:40.557Z,1012.27
2017-04-23T01:47:21.062Z,1012.26
2017-04-23T01:48:01.536Z,1012.28
2017-04-23T01:48:42.022Z,1012.29
2017-04-23T01:49:22.501Z,1012.34
2017-04-23T01:50:02.997Z,1012.3
2017-04-23T01:50:43.479Z,1012.29
2017-04-23T01:51:23.982Z,1012.28
2017-04-23T01:52:04.473Z,1012.32
2017-04-23T01:52:44.948Z,1012.28
2017-04-23T01:53:25.438Z,1012.32
2017-04-23T01:54:05.946Z,1012.34
2017-04-23T01:54:46.429Z,1012.33
2017-04-23T01:55:26.915Z,1012.36
2017-04-23T01:56:07.402Z,1012.35
2017-04-23T01:56:47.887Z,1012.36
2017-04-23T01:57:28.360Z,1012.36
2017-04-23T01:58:08.841Z,1012.32
2017-04-23T01:58:49.371Z,1012.32
2017-04-23T01:59:29.837Z,1012.35
2017-04-23T02:00:10.303Z,1012.33
2017-04-23T02:00:50.797Z,1012.36
2017-04-23T02:01:31.293Z,1012.32
2017-04-23T02:02:11.778Z,1012.32
2017-04-23T02:02:52.280Z,1012.34
2017-04-23T02:03:32.771Z,1012.35
2017-04-23T02:04:13.252Z,1012.33
2017-04-23T02:04:53.791Z,1012.33
2017-04-23T02:05:34.274Z,1012.31
2017-04-23T02:06:14.767Z,1012.32
2017-04-23T02:06:55.266Z,1012.32
2017-04-23T02:07:35.752Z,1012.32
2017-04-23T02:08:16.236Z,1012.28
2017-04-23T02:08:56.724Z,1012.32
2017-04-23T02:09:37.198Z,1012.34
2017-04-23T02:10:17.683Z,1012.3
2017-04-23T02:10:58.160Z,1012.28
2017-04-23T02:11:38.646Z,1012.28
2017-04-23T02:12:19.143Z,1012.28
2017-04-23T02:12:59.620Z,1012.28
2017-04-23T02:13:40.122Z,1012.3
2017-04-23T02:14:20.619Z,1012.27
2017-04-23T02:15:01.107Z,1012.31
2017-04-23T02:15:41.599Z,1012.3
2017-04-23T02:16:22.093Z,1012.27
2017-04-23T02:17:02.572Z,1012.3
2017-04-23T02:17:43.061Z,1012.3
2017-04-23T02:18:23.562Z,1012.24
2017-04-23T02:19:04.035Z,1012.29
2017-04-23T02:19:44.512Z,1012.29
2017-04-23T02:20:25.014Z,1012.29
2017-04-23T02:21:05.506Z,1012.32
2017-04-23T02:21:45.984Z,1012.35
2017-04-23T02:22:26.467Z,1012.33
2017-04-23T02:23:06.957Z,1012.33
2017-04-23T02:23:47.449Z,1012.36
2017-04-23T02:24:27.927Z,1012.37
2017-04-23T02:25:08.431Z,1012.36
2017-04-23T02:25:48.915Z,1012.36
2017-04-23T02:26:29.407Z,1012.36
2017-04-23T02:27:09.906Z,1012.38
2017-04-23T02:27:50.399Z,1012.37
2017-04-23T02:28:30.877Z,1012.42
2017-04-23T02:29:11.370Z,1012.4
2017-04-23T02:29:51.874Z,1012.43
2017-04-23T02:30:32.347Z,1012.39
2017-04-23T02:31:12.837Z,1012.41
2017-04-23T02:31:53.321Z,1012.36
2017-04-23T02:32:33.816Z,1012.4
2017-04-23T02:33:14.291Z,1012.43
2017-04-23T02:33:54.780Z,1012.4
2017-04-23T02:34:35.284Z,1012.4
2017-04-23T02:35:15.768Z,1012.37
2017-04-23T02:35:56.260Z,1012.37
2017-04-23T02:36:36.752Z,1012.39
2017-04-23T02:37:17.230Z,1012.39
2017-04-23T02:37:57.713Z,1012.39
2017-04-23T02:38:38.212Z,1012.4
2017-04-23T02:39:18.696Z,1012.38
2017-04-23T02:39:59.185Z,1012.4
2017-04-23T02:40:39.685Z,1012.35
2017-04-23T02:41:20.161Z,1012.39
2017-04-23T02:42:00.636Z,1012.41
2017-04-23T02:42:41.112Z,1012.39
2017-04-23T02:43:21.602Z,1012.42
2017-04-23T02:44:02.100Z,1012.41
2017-04-23T02:44:42.591Z,1012.41
2017-04-23T02:45:23.070Z,1012.38
2017-04-23T02:46:03.559Z,1012.39
2017-04-23T02:46:44.046Z,1012.42
2017-04-23T02:47:24.542Z,1012.39
2017-04-23T02:48:05.035Z,1012.42
2017-04-23T02:48:45.523Z,1012.42
2017-04-23T02:49:26.013Z,1012.44
2017-04-23T02:50:06.512Z,1012.45
2017-04-23T02:50:47.001Z,1012.42
2017-04-23T02:51:27.488Z,1012.46
2017-04-23T02:52:07.980Z,1012.44
2017-04-23T02:52:48.477Z,1012.5
2017-04-23T02:53:28.968Z,1012.43
2017-04-23T02:54:09.465Z,1012.46
2017-04-23T02:54:49.958Z,1012.46
2017-04-23T02:55:30.429Z,1012.48
2017-04-23T02:56:10.916Z,1012.51
2017-04-23T02:56:51.438Z,1012.47
2017-04-23T02:57:31.890Z,1012.48
2017-04-23T02:58:12.373Z,1012.49
2017-04-23T02:58:52.875Z,1012.47
2017-04-23T02:59:33.373Z,1012.48
2017-04-23T03:00:13.857Z,1012.49
2017-04-23T03:00:54.335Z,1012.45
2017-04-23T03:01:34.813Z,1012.47
2017-04-23T03:02:15.279Z,1012.48
2017-04-23T03:02:55.762Z,1012.47
2017-04-23T03:03:36.249Z,1012.46
2017-04-23T03:04:16.746Z,1012.49
2017-04-23T03:04:57.238Z,1012.48
2017-04-23T03:05:37.712Z,1012.48
2017-04-23T03:06:18.198Z,1012.49
2017-04-23T03:06:58.694Z,1012.49
2017-04-23T03:07:39.164Z,1012.51
2017-04-23T03:08:19.653Z,1012.54
2017-04-23T03:09:00.134Z,1012.52
2017-04-23T03:09:40.618Z,1012.52
2017-04-23T03:10:21.065Z,1012.5
2017-04-23T03:11:01.560Z,1012.48
2017-04-23T03:11:42.024Z,1012.51
2017-04-23T03:12:22.508Z,1012.52
2017-04-23T03:13:03.007Z,1012.52
2017-04-23T03:13:43.518Z,1012.52
2017-04-23T03:14:24.004Z,1012.52
2017-04-23T03:15:04.488Z,1012.52
2017-04-23T03:15:44.977Z,1012.52
2017-04-23T03:16:25.462Z,1012.52
2017-04-23T03:17:05.956Z,1012.51
2017-04-23T03:17:46.445Z,1012.5
2017-04-23T03:18:26.935Z,1012.52
2017-04-23T03:19:07.412Z,1012.52
2017-04-23T03:19:47.901Z,1012.53
2017-04-23T03:20:28.389Z,1012.54
2017-04-23T03:21:08.875Z,1012.55
2017-04-23T03:21:49.381Z,1012.53
2017-04-23T03:22:29.856Z,1012.55
2017-04-23T03:23:10.351Z,1012.52
2017-04-23T03:23:50.853Z,1012.55
2017-04-23T03:24:31.345Z,1012.55
2017-04-23T03:25:11.857Z,1012.52
2017-04-23T03:25:52.353Z,1012.55
2017-04-23T03:26:32.842Z,1012.51
2017-04-23T03:27:13.334Z,1012.5
2017-04-23T03:27:53.832Z,1012.55
2017-04-23T03:28:34.318Z,1012.54
2017-04-23T03:29:14.826Z,1012.55
2017-04-23T03:29:55.325Z,1012.5
2017-04-23T03:30:35.804Z,1012.51
2017-04-23T03:31:16.307Z,1012.55
2017-04-23T03:31:56.802Z,1012.53
2017-04-23T03:32:37.281Z,1012.5
2017-04-23T03:35:05.216Z,1012.57
2017-04-23T03:35:45.697Z,1012.54
2017-04-23T03:36:26.113Z,1012.52
2017-04-23T03:38:18.653Z,1012.56
2017-04-23T03:38:59.657Z,1012.53
2017-04-23T03:39:40.161Z,1012.59
2017-04-23T03:40:20.617Z,1012.59
2017-04-23T03:41:01.112Z,1012.62
2017-04-23T03:41:41.591Z,1012.59
2017-04-23T03:42:22.078Z,1012.6
2017-04-23T03:43:02.565Z,1012.66
2017-04-23T03:43:43.061Z,1012.6
2017-04-23T03:44:23.559Z,1012.63
2017-04-23T03:45:04.049Z,1012.64
2017-04-23T03:45:44.522Z,1012.62
2017-04-23T03:46:24.996Z,1012.61
2017-04-23T03:47:05.487Z,1012.62
2017-04-23T03:47:45.977Z,1012.64
2017-04-23T03:48:26.487Z,1012.64
2017-04-23T03:49:06.956Z,1012.64
2017-04-23T03:49:47.446Z,1012.64
2017-04-23T03:50:27.932Z,1012.64
2017-04-23T03:51:08.422Z,1012.66
2017-04-23T03:51:48.899Z,1012.69
2017-04-23T03:52:29.399Z,1012.69
2017-04-23T03:53:09.879Z,1012.65
2017-04-23T03:53:50.374Z,1012.64
2017-04-23T03:54:30.872Z,1012.67
2017-04-23T03:55:11.361Z,1012.66
2017-04-23T03:55:51.856Z,1012.72
2017-04-23T03:56:32.351Z,1012.7
2017-04-23T03:57:12.832Z,1012.67
2017-04-23T03:57:53.316Z,1012.72
2017-04-23T03:58:33.799Z,1012.7
2017-04-23T03:59:14.285Z,1012.7
2017-04-23T03:59:54.769Z,1012.7
2017-04-23T04:00:35.251Z,1012.71
2017-04-23T04:01:15.725Z,1012.7
2017-04-23T04:01:56.221Z,1012.74
2017-04-23T04:02:36.706Z,1012.73
2017-04-23T04:03:17.201Z,1012.72
2017-04-23T04:03:57.694Z,1012.73
2017-04-23T04:04:38.181Z,1012.72
2017-04-23T04:05:18.657Z,1012.75
2017-04-23T04:05:59.138Z,1012.77
2017-04-23T04:06:39.629Z,1012.77
2017-04-23T04:07:20.113Z,1012.74
2017-04-23T04:08:00.601Z,1012.77
2017-04-23T04:08:41.095Z,1012.77
2017-04-23T04:09:21.587Z,1012.78
2017-04-23T04:10:02.065Z,1012.78
2017-04-23T04:10:42.553Z,1012.77
2017-04-23T04:11:23.046Z,1012.8
2017-04-23T04:12:03.545Z,1012.79
2017-04-23T04:12:44.028Z,1012.77
2017-04-23T04:13:24.518Z,1012.78
2017-04-23T04:14:05.011Z,1012.8
2017-04-23T04:14:45.507Z,1012.77
2017-04-23T04:15:25.999Z,1012.82
2017-04-23T04:16:06.491Z,1012.81
2017-04-23T04:16:46.979Z,1012.77
2017-04-23T04:17:27.473Z,1012.83
2017-04-23T04:18:07.964Z,1012.83
2017-04-23T04:18:48.459Z,1012.83
2017-04-23T04:19:28.952Z,1012.82
2017-04-23T04:20:09.440Z,1012.83
2017-04-23T04:20:49.936Z,1012.86
2017-04-23T04:21:30.427Z,1012.84
2017-04-23T04:22:10.912Z,1012.83
2017-04-23T04:22:51.387Z,1012.86
2017-04-23T04:23:31.878Z,1012.87
2017-04-23T04:24:12.363Z,1012.81
2017-04-23T04:24:52.852Z,1012.83
2017-04-23T04:25:33.336Z,1012.86
2017-04-23T04:26:13.850Z,1012.87
2017-04-23T04:26:54.318Z,1012.89
2017-04-23T04:27:34.797Z,1012.87
2017-04-23T04:28:15.291Z,1012.89
2017-04-23T04:28:55.779Z,1012.87
2017-04-23T04:29:36.271Z,1012.91
2017-04-23T04:30:16.756Z,1012.95
2017-04-23T04:30:57.249Z,1012.98
2017-04-23T04:31:37.740Z,1012.94
2017-04-23T04:32:18.220Z,1012.95
2017-04-23T04:32:58.697Z,1012.97
2017-04-23T04:33:39.193Z,1013.01
2017-04-23T04:34:19.673Z,1012.98
2017-04-23T04:35:00.164Z,1013.04
2017-04-23T04:35:40.668Z,1013.04
2017-04-23T04:36:21.147Z,1013.05
2017-04-23T04:37:01.619Z,1013.07
2017-04-23T04:37:42.094Z,1013.07
2017-04-23T04:38:22.590Z,1013.06
2017-04-23T04:39:03.084Z,1013.04
2017-04-23T04:39:43.569Z,1013.07
2017-04-23T04:40:24.056Z,1013.06
2017-04-23T04:41:04.536Z,1013.09
2017-04-23T04:41:45.018Z,1013.07
2017-04-23T04:42:25.497Z,1013.07
2017-04-23T04:43:05.986Z,1013.09
2017-04-23T04:43:46.473Z,1013.08
2017-04-23T04:44:26.961Z,1013.08
2017-04-23T04:45:07.453Z,1013.1
2017-04-23T04:45:47.935Z,1013.11
2017-04-23T04:46:28.428Z,1013.13
2017-04-23T04:47:08.908Z,1013.13
2017-04-23T04:47:49.407Z,1013.12
2017-04-23T04:48:29.885Z,1013.14
2017-04-23T04:49:10.362Z,1013.16
2017-04-23T04:49:50.839Z,1013.15
2017-04-23T04:50:31.326Z,1013.16
2017-04-23T04:51:11.818Z,1013.17
2017-04-23T04:51:52.299Z,1013.15
2017-04-23T04:52:32.781Z,1013.18
2017-04-23T04:53:13.264Z,1013.16
2017-04-23T04:53:53.757Z,1013.17
2017-04-23T04:54:34.239Z,1013.2
2017-04-23T04:55:14.711Z,1013.22
2017-04-23T04:55:55.202Z,1013.23
2017-04-23T04:56:35.696Z,1013.21
2017-04-23T04:57:16.172Z,1013.22
2017-04-23T04:57:56.657Z,1013.22
2017-04-23T04:58:37.161Z,1013.22
2017-04-23T04:59:17.632Z,1013.25
2017-04-23T04:59:58.635Z,1013.22
2017-04-23T05:02:11.343Z,1013.24
2017-04-23T05:02:51.818Z,1013.26
2017-04-23T05:03:32.302Z,1013.27
2017-04-23T05:04:12.809Z,1013.28
2017-04-23T05:04:53.266Z,1013.26
2017-04-23T05:05:33.752Z,1013.29
2017-04-23T05:06:14.241Z,1013.33
2017-04-23T05:06:54.718Z,1013.3
2017-04-23T05:07:35.213Z,1013.31
2017-04-23T05:08:15.695Z,1013.32
2017-04-23T05:08:56.191Z,1013.34
2017-04-23T05:09:36.697Z,1013.37
2017-04-23T05:10:17.176Z,1013.36
2017-04-23T05:10:57.646Z,1013.41
2017-04-23T05:11:38.142Z,1013.43
2017-04-23T05:12:18.624Z,1013.43
2017-04-23T05:12:59.111Z,1013.39
2017-04-23T05:13:39.582Z,1013.45
2017-04-23T05:14:20.085Z,1013.45
2017-04-23T05:15:00.561Z,1013.47
2017-04-23T05:15:41.044Z,1013.5
2017-04-23T05:16:21.524Z,1013.49
2017-04-23T05:17:02.008Z,1013.48
2017-04-23T05:17:42.507Z,1013.49
2017-04-23T05:19:40.124Z,1013.54
2017-04-23T05:20:20.587Z,1013.52
2017-04-23T05:21:01.067Z,1013.53
2017-04-23T05:21:41.574Z,1013.53
2017-04-23T05:22:22.030Z,1013.52
2017-04-23T05:23:02.517Z,1013.57
2017-04-23T05:23:43.005Z,1013.54
2017-04-23T05:24:23.492Z,1013.59
2017-04-23T05:25:03.972Z,1013.58
2017-04-23T05:25:44.436Z,1013.58
2017-04-23T05:26:24.933Z,1013.58
2017-04-23T05:27:05.434Z,1013.6
2017-04-23T05:27:45.903Z,1013.63
2017-04-23T05:28:26.389Z,1013.6
2017-04-23T05:29:06.879Z,1013.62
2017-04-23T05:29:47.370Z,1013.64
2017-04-23T05:30:27.850Z,1013.65
2017-04-23T05:31:08.332Z,1013.64
2017-04-23T05:31:48.816Z,1013.68
2017-04-23T05:32:29.306Z,1013.66
2017-04-23T05:33:09.789Z,1013.68
2017-04-23T05:33:50.287Z,1013.69
2017-04-23T05:34:30.781Z,1013.66
2017-04-23T05:35:11.254Z,1013.7
2017-04-23T05:35:51.724Z,1013.69
2017-04-23T05:36:32.227Z,1013.73
2017-04-23T05:37:12.721Z,1013.73
2017-04-23T05:37:53.198Z,1013.7
2017-04-23T05:38:33.698Z,1013.74
2017-04-23T05:39:14.206Z,1013.73
2017-04-23T05:39:54.698Z,1013.74
2017-04-23T05:40:35.183Z,1013.73
2017-04-23T05:41:15.686Z,1013.76
2017-04-23T05:41:56.171Z,1013.78
2017-04-23T05:42:36.666Z,1013.78
2017-04-23T05:43:17.144Z,1013.81
2017-04-23T05:43:57.627Z,1013.82
2017-04-23T05:44:38.131Z,1013.82
2017-04-23T05:45:18.621Z,1013.85
2017-04-23T05:45:59.100Z,1013.81
2017-04-23T05:46:39.602Z,1013.86
2017-04-23T05:47:20.099Z,1013.88
2017-04-23T05:48:00.570Z,1013.87
2017-04-23T05:48:41.066Z,1013.93
2017-04-23T05:49:21.547Z,1013.96
2017-04-23T05:50:02.032Z,1013.93
2017-04-23T05:50:42.514Z,1013.95
2017-04-23T05:51:23.002Z,1013.92
2017-04-23T05:52:03.509Z,1013.93
2017-04-23T05:52:43.985Z,1013.95
2017-04-23T05:53:24.454Z,1013.97
2017-04-23T05:54:04.952Z,1013.95
2017-04-23T05:54:45.446Z,1014
2017-04-23T05:55:25.933Z,1014
2017-04-23T05:56:06.433Z,1013.98
2017-04-23T05:56:46.924Z,1014
2017-04-23T05:57:27.418Z,1014.01
2017-04-23T05:58:07.912Z,1014.01
2017-04-23T05:58:48.409Z,1013.99
2017-04-23T05:59:28.905Z,1013.98
2017-04-23T06:00:09.405Z,1014.01
2017-04-23T06:00:49.882Z,1014
2017-04-23T06:01:30.363Z,1013.99
2017-04-23T06:02:10.864Z,1013.98
2017-04-23T06:02:51.356Z,1014.02
2017-04-23T06:03:31.847Z,1013.98
2017-04-23T06:04:12.350Z,1013.98
2017-04-23T06:04:52.841Z,1014
2017-04-23T06:05:33.336Z,1014.02
2017-04-23T06:06:13.819Z,1014.05
2017-04-23T06:06:54.314Z,1014.06
2017-04-23T06:07:34.811Z,1014.07
2017-04-23T06:08:15.303Z,1014.06
2017-04-23T06:08:55.790Z,1014.03
2017-04-23T06:09:36.268Z,1014.1
2017-04-23T06:10:16.757Z,1014.1
2017-04-23T06:10:57.245Z,1014.12
2017-04-23T06:11:37.733Z,1014.11
2017-04-23T06:12:18.231Z,1014.15
2017-04-23T06:12:58.741Z,1014.16
2017-04-23T06:13:39.231Z,1014.15
2017-04-23T06:14:19.726Z,1014.14
2017-04-23T06:15:00.220Z,1014.16
2017-04-23T06:15:40.707Z,1014.16
2017-04-23T06:16:21.215Z,1014.15
2017-04-23T06:17:01.703Z,1014.18
2017-04-23T06:17:42.186Z,1014.18
2017-04-23T06:18:22.682Z,1014.2
2017-04-23T06:19:03.175Z,1014.21
2017-04-23T06:19:43.658Z,1014.24
2017-04-23T06:20:24.158Z,1014.23
2017-04-23T06:21:04.654Z,1014.23
2017-04-23T06:21:45.137Z,1014.23
2017-04-23T06:22:25.610Z,1014.23
2017-04-23T06:23:06.127Z,1014.26
2017-04-23T06:23:46.612Z,1014.28
2017-04-23T06:24:27.106Z,1014.25
2017-04-23T06:25:07.593Z,1014.27
2017-04-23T06:25:48.077Z,1014.3
2017-04-23T06:26:28.570Z,1014.29
2017-04-23T06:27:09.059Z,1014.29
2017-04-23T06:27:49.543Z,1014.32
2017-04-23T06:28:30.045Z,1014.3
2017-04-23T06:29:10.539Z,1014.31
2017-04-23T06:29:51.024Z,1014.32
2017-04-23T06:30:31.519Z,1014.34
2017-04-23T06:31:12.008Z,1014.31
2017-04-23T06:31:52.494Z,1014.3
2017-04-23T06:32:32.983Z,1014.29
2017-04-23T06:33:13.492Z,1014.33
2017-04-23T06:33:53.972Z,1014.35
2017-04-23T06:34:34.464Z,1014.36
2017-04-23T06:35:14.968Z,1014.36
2017-04-23T06:35:55.448Z,1014.35
2017-04-23T06:36:35.947Z,1014.38
2017-04-23T06:37:16.441Z,1014.36
2017-04-23T06:37:56.925Z,1014.38
2017-04-23T06:38:37.427Z,1014.37
2017-04-23T06:39:17.912Z,1014.36
2017-04-23T06:39:58.412Z,1014.4
2017-04-23T06:40:38.898Z,1014.35
2017-04-23T06:41:19.397Z,1014.37
2017-04-23T06:41:59.881Z,1014.37
2017-04-23T06:42:40.378Z,1014.35
2017-04-23T06:43:20.867Z,1014.37
2017-04-23T06:44:01.361Z,1014.37
2017-04-23T06:44:41.847Z,1014.4
2017-04-23T06:45:22.350Z,1014.39
2017-04-23T06:46:02.837Z,1014.38
2017-04-23T06:46:43.335Z,1014.4
2017-04-23T06:47:23.825Z,1014.41
2017-04-23T06:48:04.311Z,1014.42
2017-04-23T06:48:44.799Z,1014.4
2017-04-23T06:49:25.294Z,1014.43
2017-04-23T06:50:05.790Z,1014.43
2017-04-23T06:50:46.277Z,1014.43
2017-04-23T06:51:26.776Z,1014.41
2017-04-23T06:52:07.268Z,1014.45
2017-04-23T06:52:47.746Z,1014.45
2017-04-23T06:53:28.240Z,1014.42
2017-04-23T06:54:08.733Z,1014.45
2017-04-23T06:54:49.229Z,1014.45
2017-04-23T06:55:29.736Z,1014.41
2017-04-23T06:56:10.219Z,1014.4
2017-04-23T06:56:50.710Z,1014.43
2017-04-23T06:57:31.207Z,1014.39
2017-04-23T06:58:11.699Z,1014.44
2017-04-23T06:58:52.192Z,1014.4
2017-04-23T06:59:32.690Z,1014.43
2017-04-23T07:00:13.176Z,1014.44
2017-04-23T07:00:53.669Z,1014.43
2017-04-23T07:01:34.165Z,1014.44
2017-04-23T07:02:14.652Z,1014.41
2017-04-23T07:02:55.135Z,1014.4
2017-04-23T07:03:35.599Z,1014.41
2017-04-23T07:04:16.097Z,1014.4
2017-04-23T07:04:56.592Z,1014.4
2017-04-23T07:05:37.103Z,1014.41
2017-04-23T07:06:17.567Z,1014.4
2017-04-23T07:06:58.066Z,1014.39
2017-04-23T07:07:38.554Z,1014.37
2017-04-23T07:08:19.053Z,1014.4
2017-04-23T07:08:59.548Z,1014.37
2017-04-23T07:09:40.047Z,1014.38
2017-04-23T07:10:20.530Z,1014.39
2017-04-23T07:11:01.025Z,1014.4
2017-04-23T07:11:41.526Z,1014.48
2017-04-23T07:12:22.012Z,1014.56
2017-04-23T07:13:02.502Z,1014.52
2017-04-23T07:13:42.995Z,1014.52
2017-04-23T07:14:23.479Z,1014.54
2017-04-23T07:15:03.960Z,1014.53
2017-04-23T07:15:44.448Z,1014.52
2017-04-23T07:16:24.947Z,1014.5
2017-04-23T07:17:05.451Z,1014.51
2017-04-23T07:17:45.938Z,1014.51
2017-04-23T07:18:26.436Z,1014.48
2017-04-23T07:19:06.934Z,1014.48
2017-04-23T07:19:47.444Z,1014.49
2017-04-23T07:22:05.269Z,1014.47
2017-04-23T07:22:45.762Z,1014.41
2017-04-23T07:23:26.270Z,1014.39
2017-04-23T07:24:06.755Z,1014.3
2017-04-23T07:24:47.241Z,1014.34
2017-04-23T07:25:27.727Z,1014.4
2017-04-23T07:26:08.216Z,1014.5
2017-04-23T07:26:48.709Z,1014.52
2017-04-23T07:27:29.208Z,1014.51
2017-04-23T07:28:09.679Z,1014.49
2017-04-23T07:28:50.171Z,1014.53
2017-04-23T07:29:30.668Z,1014.54
2017-04-23T07:30:11.162Z,1014.52
2017-04-23T07:30:51.653Z,1014.52
2017-04-23T07:31:32.132Z,1014.57
2017-04-23T07:32:12.637Z,1014.48
2017-04-23T07:32:53.127Z,1014.55
2017-04-23T07:33:33.631Z,1014.47
2017-04-23T07:34:14.120Z,1014.62
2017-04-23T07:34:54.620Z,1014.64
2017-04-23T07:35:35.121Z,1014.68
2017-04-23T07:36:15.596Z,1014.57
2017-04-23T07:36:56.096Z,1014.61
2017-04-23T07:37:36.582Z,1014.52
2017-04-23T07:38:17.081Z,1014.51
2017-04-23T07:38:57.571Z,1014.54
2017-04-23T07:39:38.070Z,1014.57
2017-04-23T07:40:18.562Z,1014.56
2017-04-23T07:40:59.044Z,1014.59
2017-04-23T07:41:39.542Z,1014.6
2017-04-23T07:42:20.033Z,1014.64
2017-04-23T07:43:00.543Z,1014.65
2017-04-23T07:43:41.036Z,1014.69
2017-04-23T07:44:21.500Z,1014.73
2017-04-23T07:45:02.003Z,1014.7
2017-04-23T07:45:42.491Z,1014.72
2017-04-23T07:46:22.985Z,1014.74
2017-04-23T07:47:03.481Z,1014.75
2017-04-23T07:47:43.998Z,1014.75
2017-04-23T07:48:24.500Z,1014.65
2017-04-23T07:49:04.992Z,1014.9
2017-04-23T07:49:45.477Z,1014.87
2017-04-23T07:50:25.960Z,1014.65
2017-04-23T07:51:06.459Z,1014.58
2017-04-23T07:51:46.952Z,1014.43
2017-04-23T07:52:27.447Z,1014.71
2017-04-23T07:53:07.945Z,1014.86
2017-04-23T07:53:48.438Z,1014.95
2017-04-23T07:54:28.924Z,1014.95
2017-04-23T07:55:09.419Z,1014.73
2017-04-23T07:55:49.911Z,1014.57
2017-04-23T07:56:30.398Z,1014.55
2017-04-23T07:57:10.884Z,1014.54
2017-04-23T07:57:51.383Z,1014.57
2017-04-23T07:58:31.884Z,1014.62
2017-04-23T07:59:12.371Z,1014.6
2017-04-23T07:59:52.869Z,1014.53
2017-04-23T08:00:33.364Z,1014.58
2017-04-23T08:01:13.837Z,1014.54
2017-04-23T08:01:54.342Z,1014.66
2017-04-23T08:02:34.829Z,1014.68
2017-04-23T08:03:15.328Z,1014.66
2017-04-23T08:03:55.821Z,1014.65
2017-04-23T08:04:36.316Z,1014.61
2017-04-23T08:05:16.807Z,1014.63
2017-04-23T08:05:57.296Z,1014.56
2017-04-23T08:06:37.781Z,1014.58
2017-04-23T08:07:18.267Z,1014.56
2017-04-23T08:07:58.774Z,1014.55
2017-04-23T08:08:39.261Z,1014.57
2017-04-23T08:09:19.755Z,1014.47
2017-04-23T08:10:00.250Z,1014.39
2017-04-23T08:10:40.736Z,1014.43
2017-04-23T08:11:21.240Z,1014.37
2017-04-23T08:12:01.736Z,1014.37
2017-04-23T08:12:42.225Z,1014.38
2017-04-23T08:13:22.737Z,1014.33
2017-04-23T08:14:03.202Z,1014.29
2017-04-23T08:14:43.681Z,1014.27
2017-04-23T08:15:24.184Z,1014.26
2017-04-23T08:16:04.681Z,1014.28
2017-04-23T08:16:45.174Z,1014.3
2017-04-23T08:17:25.685Z,1014.35
2017-04-23T08:18:06.154Z,1014.39
2017-04-23T08:18:46.650Z,1014.47
2017-04-23T08:19:27.138Z,1015.23
2017-04-23T08:20:07.634Z,1015.32
2017-04-23T08:20:48.138Z,1015.38
2017-04-23T08:21:28.650Z,1015.34
2017-04-23T08:22:09.137Z,1015.38